createdAt,value
2017-03-30T00:00:05.382Z,95
2017-03-30T00:01:05.364Z,99
2017-03-30T00:02:04.794Z,93
2017-03-30T00:03:05.040Z,93
2017-03-30T00:04:05.336Z,98
2017-03-30T00:05:05.326Z,99
2017-03-30T00:06:05.342Z,99
2017-03-30T00:07:04.986Z,95
2017-03-30T00:08:05.310Z,94
2017-03-30T00:09:05.265Z,94
2017-03-30T00:10:04.946Z,95
2017-03-30T00:11:05.290Z,94
2017-03-30T00:12:04.912Z,93
2017-03-30T00:13:05.266Z,98
2017-03-30T00:14:05.202Z,98
2017-03-30T00:15:04.882Z,95
2017-03-30T00:16:04.866Z,95
2017-03-30T00:17:04.859Z,93
2017-03-30T00:18:04.841Z,99
2017-03-30T00:19:05.138Z,97
2017-03-30T00:20:05.125Z,95
2017-03-30T00:21:04.807Z,94
2017-03-30T00:22:04.790Z,94
2017-03-30T00:23:05.135Z,95
2017-03-30T00:24:05.084Z,99
2017-03-30T00:25:05.061Z,97
2017-03-30T00:26:05.060Z,94
2017-03-30T00:27:04.732Z,98
2017-03-30T00:28:05.025Z,94
2017-03-30T00:29:05.033Z,98
2017-03-30T00:30:05.007Z,98
2017-03-30T00:31:04.985Z,100
2017-03-30T00:32:04.978Z,100
2017-03-30T00:33:04.968Z,95
2017-03-30T00:34:04.633Z,94
2017-03-30T00:35:04.628Z,100
2017-03-30T00:36:04.611Z,98
2017-03-30T00:37:04.285Z,99
2017-03-30T00:38:04.900Z,96
2017-03-30T00:39:04.776Z,93
2017-03-30T00:40:04.656Z,99
2017-03-30T00:41:04.551Z,98
2017-03-30T00:42:04.220Z,95
2017-03-30T00:43:04.840Z,95
2017-03-30T00:44:04.512Z,95
2017-03-30T00:45:04.494Z,94
2017-03-30T00:46:04.485Z,98
2017-03-30T00:47:04.154Z,100
2017-03-30T00:48:04.160Z,93
2017-03-30T00:49:04.441Z,94
2017-03-30T00:50:04.424Z,97
2017-03-30T00:51:04.418Z,100
2017-03-30T00:52:04.409Z,93
2017-03-30T00:53:04.704Z,94
2017-03-30T00:54:04.702Z,95
2017-03-30T00:55:04.400Z,94
2017-03-30T00:56:04.073Z,98
2017-03-30T00:57:04.655Z,95
2017-03-30T00:58:04.647Z,95
2017-03-30T00:59:04.645Z,98
2017-03-30T01:00:04.617Z,98
2017-03-30T01:01:04.606Z,98
2017-03-30T01:02:04.288Z,97
2017-03-30T01:03:04.579Z,95
2017-03-30T01:04:04.563Z,99
2017-03-30T01:05:04.552Z,98
2017-03-30T01:06:04.547Z,94
2017-03-30T01:07:04.523Z,100
2017-03-30T01:08:04.513Z,98
2017-03-30T01:09:04.202Z,95
2017-03-30T01:10:04.486Z,96
2017-03-30T01:11:03.854Z,99
2017-03-30T01:12:04.473Z,96
2017-03-30T01:13:04.451Z,100
2017-03-30T01:14:04.433Z,99
2017-03-30T01:15:04.419Z,98
2017-03-30T01:16:04.405Z,98
2017-03-30T01:17:04.394Z,96
2017-03-30T01:18:04.379Z,95
2017-03-30T01:19:04.374Z,93
2017-03-30T01:20:04.046Z,99
2017-03-30T01:21:04.346Z,98
2017-03-30T01:22:04.327Z,100
2017-03-30T01:23:04.316Z,94
2017-03-30T01:24:03.991Z,93
2017-03-30T01:25:03.975Z,95
2017-03-30T01:26:04.282Z,100
2017-03-30T01:27:04.261Z,98
2017-03-30T01:28:04.261Z,98
2017-03-30T01:29:04.238Z,95
2017-03-30T01:30:04.224Z,95
2017-03-30T01:31:04.225Z,100
2017-03-30T01:32:04.201Z,96
2017-03-30T01:33:04.198Z,98
2017-03-30T01:34:04.170Z,93
2017-03-30T01:35:03.218Z,99
2017-03-30T01:36:04.150Z,93
2017-03-30T01:37:04.129Z,97
2017-03-30T01:38:04.124Z,98
2017-03-30T01:39:04.110Z,94
2017-03-30T01:40:04.091Z,98
2017-03-30T01:41:03.765Z,94
2017-03-30T01:42:03.758Z,100
2017-03-30T01:43:04.056Z,95
2017-03-30T01:44:04.057Z,99
2017-03-30T01:45:03.721Z,99
2017-03-30T01:46:04.034Z,95
2017-03-30T01:47:04.001Z,99
2017-03-30T01:48:03.996Z,95
2017-03-30T01:49:03.975Z,93
2017-03-30T01:50:03.977Z,95
2017-03-30T01:51:03.956Z,95
2017-03-30T01:52:03.955Z,99
2017-03-30T01:53:03.625Z,93
2017-03-30T01:54:03.913Z,99
2017-03-30T01:55:03.906Z,98
2017-03-30T01:56:03.895Z,95
2017-03-30T01:57:03.598Z,98
2017-03-30T01:58:03.566Z,99
2017-03-30T01:59:03.545Z,93
2017-03-30T02:00:03.539Z,93
2017-03-30T02:01:03.879Z,98
2017-03-30T02:02:03.843Z,95
2017-03-30T02:03:03.479Z,95
2017-03-30T02:04:03.781Z,95
2017-03-30T02:05:03.455Z,95
2017-03-30T02:06:03.450Z,97
2017-03-30T02:07:03.432Z,95
2017-03-30T02:08:03.732Z,94
2017-03-30T02:09:03.714Z,94
2017-03-30T02:10:03.397Z,97
2017-03-30T02:11:03.694Z,96
2017-03-30T02:12:03.373Z,95
2017-03-30T02:13:03.665Z,100
2017-03-30T02:14:03.390Z,95
2017-03-30T02:15:03.331Z,99
2017-03-30T02:16:03.632Z,99
2017-03-30T02:17:03.626Z,99
2017-03-30T02:18:03.288Z,95
2017-03-30T02:19:02.973Z,95
2017-03-30T02:20:03.592Z,99
2017-03-30T02:21:03.572Z,96
2017-03-30T02:22:02.934Z,95
2017-03-30T02:23:03.539Z,94
2017-03-30T02:24:03.207Z,98
2017-03-30T02:25:03.228Z,99
2017-03-30T02:26:03.498Z,95
2017-03-30T02:27:03.486Z,95
2017-03-30T02:28:03.487Z,97
2017-03-30T02:29:03.152Z,95
2017-03-30T02:30:03.445Z,99
2017-03-30T02:31:03.449Z,100
2017-03-30T02:32:03.119Z,99
2017-03-30T02:33:02.790Z,100
2017-03-30T02:34:03.406Z,93
2017-03-30T02:35:03.073Z,98
2017-03-30T02:36:03.369Z,100
2017-03-30T02:37:03.364Z,93
2017-03-30T02:38:03.346Z,95
2017-03-30T02:39:03.571Z,97
2017-03-30T02:40:02.702Z,99
2017-03-30T02:41:03.312Z,99
2017-03-30T02:42:03.006Z,99
2017-03-30T02:43:02.971Z,98
2017-03-30T02:44:03.011Z,98
2017-03-30T02:45:03.261Z,98
2017-03-30T02:46:03.251Z,95
2017-03-30T02:47:02.931Z,100
2017-03-30T02:48:02.915Z,94
2017-03-30T02:49:02.901Z,94
2017-03-30T02:50:03.228Z,95
2017-03-30T02:51:03.210Z,94
2017-03-30T02:52:03.174Z,95
2017-03-30T02:53:02.843Z,94
2017-03-30T02:54:03.150Z,99
2017-03-30T02:55:02.813Z,95
2017-03-30T02:56:03.118Z,100
2017-03-30T02:57:02.798Z,97
2017-03-30T02:58:02.777Z,99
2017-03-30T02:59:03.076Z,99
2017-03-30T03:00:03.073Z,95
2017-03-30T03:01:03.145Z,100
2017-03-30T03:02:02.809Z,95
2017-03-30T03:03:03.122Z,95
2017-03-30T03:04:02.798Z,98
2017-03-30T03:05:03.000Z,99
2017-03-30T03:06:02.677Z,97
2017-03-30T03:07:02.980Z,100
2017-03-30T03:08:02.965Z,99
2017-03-30T03:09:02.947Z,94
2017-03-30T03:10:02.628Z,99
2017-03-30T03:11:02.971Z,94
2017-03-30T03:12:02.931Z,96
2017-03-30T03:13:02.626Z,99
2017-03-30T03:14:02.892Z,98
2017-03-30T03:15:02.558Z,100
2017-03-30T03:16:02.563Z,94
2017-03-30T03:17:02.530Z,99
2017-03-30T03:18:02.553Z,94
2017-03-30T03:19:02.716Z,95
2017-03-30T03:20:02.503Z,99
2017-03-30T03:21:02.803Z,99
2017-03-30T03:22:02.485Z,95
2017-03-30T03:23:02.462Z,98
2017-03-30T03:24:02.450Z,99
2017-03-30T03:25:02.429Z,98
2017-03-30T03:26:02.422Z,98
2017-03-30T03:27:02.409Z,96
2017-03-30T03:28:02.707Z,95
2017-03-30T03:29:02.697Z,98
2017-03-30T03:30:02.677Z,94
2017-03-30T03:31:02.671Z,96
2017-03-30T03:32:02.349Z,98
2017-03-30T03:33:02.026Z,95
2017-03-30T03:34:02.633Z,96
2017-03-30T03:35:02.625Z,98
2017-03-30T03:36:02.324Z,99
2017-03-30T03:37:02.285Z,99
2017-03-30T03:38:02.273Z,94
2017-03-30T03:39:02.569Z,99
2017-03-30T03:40:02.550Z,94
2017-03-30T03:41:02.551Z,100
2017-03-30T03:42:02.537Z,96
2017-03-30T03:43:02.211Z,98
2017-03-30T03:44:02.506Z,99
2017-03-30T03:45:02.504Z,93
2017-03-30T03:46:02.167Z,99
2017-03-30T03:47:02.464Z,97
2017-03-30T03:48:02.175Z,99
2017-03-30T03:49:02.124Z,95
2017-03-30T03:50:01.797Z,99
2017-03-30T03:51:02.423Z,94
2017-03-30T03:52:02.413Z,99
2017-03-30T03:53:02.398Z,95
2017-03-30T03:54:02.378Z,95
2017-03-30T03:55:02.372Z,95
2017-03-30T03:56:02.037Z,96
2017-03-30T03:57:02.343Z,100
2017-03-30T03:58:02.327Z,95
2017-03-30T03:59:02.312Z,99
2017-03-30T04:00:02.299Z,99
2017-03-30T04:01:01.980Z,95
2017-03-30T04:02:01.965Z,99
2017-03-30T04:03:02.264Z,97
2017-03-30T04:04:01.944Z,97
2017-03-30T04:05:02.243Z,99
2017-03-30T04:06:02.226Z,93
2017-03-30T04:07:01.908Z,95
2017-03-30T04:08:01.917Z,95
2017-03-30T04:09:02.192Z,93
2017-03-30T04:10:01.864Z,95
2017-03-30T04:11:01.852Z,95
2017-03-30T04:12:01.845Z,94
2017-03-30T04:13:02.139Z,99
2017-03-30T04:14:02.134Z,95
2017-03-30T04:15:01.844Z,97
2017-03-30T04:16:02.114Z,95
2017-03-30T04:17:01.461Z,94
2017-03-30T04:18:01.755Z,99
2017-03-30T04:19:02.064Z,100
2017-03-30T04:20:02.049Z,100
2017-03-30T04:21:01.722Z,97
2017-03-30T04:22:02.019Z,95
2017-03-30T04:23:02.014Z,98
2017-03-30T04:24:02.041Z,100
2017-03-30T04:25:01.684Z,99
2017-03-30T04:26:01.980Z,93
2017-03-30T04:27:01.959Z,100
2017-03-30T04:28:01.950Z,99
2017-03-30T04:29:01.981Z,94
2017-03-30T04:30:01.609Z,99
2017-03-30T04:31:01.909Z,96
2017-03-30T04:32:01.898Z,99
2017-03-30T04:33:01.566Z,95
2017-03-30T04:34:01.863Z,98
2017-03-30T04:35:01.847Z,97
2017-03-30T04:36:01.527Z,95
2017-03-30T04:37:01.834Z,94
2017-03-30T04:38:01.813Z,100
2017-03-30T04:39:02.443Z,99
2017-03-30T04:40:01.793Z,99
2017-03-30T04:41:01.471Z,95
2017-03-30T04:42:01.507Z,100
2017-03-30T04:43:01.755Z,94
2017-03-30T04:44:01.733Z,95
2017-03-30T04:45:01.721Z,95
2017-03-30T04:46:01.740Z,94
2017-03-30T04:47:01.706Z,99
2017-03-30T04:48:01.689Z,99
2017-03-30T04:49:01.368Z,100
2017-03-30T04:50:01.671Z,94
2017-03-30T04:51:01.350Z,94
2017-03-30T04:52:01.012Z,96
2017-03-30T04:53:01.648Z,99
2017-03-30T04:54:01.292Z,94
2017-03-30T04:55:01.317Z,100
2017-03-30T04:56:01.589Z,100
2017-03-30T04:57:01.566Z,95
2017-03-30T04:58:01.563Z,99
2017-03-30T04:59:01.563Z,99
2017-03-30T05:00:01.536Z,99
2017-03-30T05:01:01.210Z,100
2017-03-30T05:02:01.515Z,95
2017-03-30T05:03:01.193Z,96
2017-03-30T05:04:01.489Z,98
2017-03-30T05:05:01.477Z,100
2017-03-30T05:06:01.454Z,100
2017-03-30T05:07:01.453Z,99
2017-03-30T05:08:01.113Z,100
2017-03-30T05:09:01.131Z,100
2017-03-30T05:10:01.101Z,100
2017-03-30T05:11:01.391Z,96
2017-03-30T05:12:01.394Z,99
2017-03-30T05:13:01.407Z,94
2017-03-30T05:14:01.069Z,98
2017-03-30T05:15:01.037Z,100
2017-03-30T05:16:01.322Z,95
2017-03-30T05:17:01.313Z,94
2017-03-30T05:18:01.301Z,100
2017-03-30T05:19:01.312Z,100
2017-03-30T05:20:00.965Z,97
2017-03-30T05:21:00.945Z,95
2017-03-30T05:22:00.950Z,100
2017-03-30T05:23:00.299Z,98
2017-03-30T05:24:00.908Z,95
2017-03-30T05:25:00.897Z,95
2017-03-30T05:26:01.212Z,99
2017-03-30T05:27:00.872Z,96
2017-03-30T05:28:00.545Z,98
2017-03-30T05:29:00.845Z,97
2017-03-30T05:30:01.144Z,100
2017-03-30T05:31:01.136Z,99
2017-03-30T05:32:00.491Z,93
2017-03-30T05:33:00.166Z,95
2017-03-30T05:34:01.091Z,94
2017-03-30T05:35:01.084Z,99
2017-03-30T05:36:01.072Z,95
2017-03-30T05:37:00.743Z,100
2017-03-30T05:38:01.052Z,94
2017-03-30T05:39:00.712Z,95
2017-03-30T05:40:01.016Z,98
2017-03-30T05:41:01.020Z,94
2017-03-30T05:42:00.999Z,95
2017-03-30T05:43:00.976Z,95
2017-03-30T05:44:00.690Z,95
2017-03-30T05:45:00.995Z,99
2017-03-30T05:46:00.630Z,94
2017-03-30T05:47:00.942Z,95
2017-03-30T05:48:00.605Z,94
2017-03-30T05:49:00.584Z,100
2017-03-30T05:50:00.576Z,96
2017-03-30T05:51:00.576Z,99
2017-03-30T05:52:00.856Z,95
2017-03-30T05:53:00.535Z,97
2017-03-30T05:54:00.512Z,95
2017-03-30T05:55:00.213Z,100
2017-03-30T05:55:59.885Z,95
2017-03-30T05:57:00.799Z,95
2017-03-30T05:58:00.471Z,94
2017-03-30T05:59:00.772Z,95
2017-03-30T06:00:00.755Z,95
2017-03-30T06:01:00.754Z,94
2017-03-30T06:02:00.727Z,95
2017-03-30T06:03:00.403Z,94
2017-03-30T06:04:00.392Z,94
2017-03-30T06:05:00.378Z,98
2017-03-30T06:06:00.672Z,97
2017-03-30T06:07:00.668Z,94
2017-03-30T06:08:00.652Z,94
2017-03-30T06:08:59.697Z,95
2017-03-30T06:10:00.306Z,99
2017-03-30T06:10:59.676Z,95
2017-03-30T06:12:00.604Z,99
2017-03-30T06:13:00.587Z,96
2017-03-30T06:14:00.574Z,99
2017-03-30T06:15:00.245Z,100
2017-03-30T06:16:00.264Z,100
2017-03-30T06:17:00.220Z,98
2017-03-30T06:18:00.211Z,94
2017-03-30T06:18:59.889Z,95
2017-03-30T06:20:00.496Z,96
2017-03-30T06:21:00.179Z,99
2017-03-30T06:21:59.835Z,100
2017-03-30T06:23:00.468Z,100
2017-03-30T06:24:00.450Z,94
2017-03-30T06:25:00.433Z,100
2017-03-30T06:26:00.112Z,99
2017-03-30T06:27:00.100Z,95
2017-03-30T06:28:00.088Z,100
2017-03-30T06:29:00.082Z,99
2017-03-30T06:30:00.058Z,99
2017-03-30T06:31:00.371Z,98
2017-03-30T06:32:00.338Z,100
2017-03-30T06:33:00.334Z,100
2017-03-30T06:34:00.021Z,100
2017-03-30T06:34:59.997Z,98
2017-03-30T06:35:59.986Z,100
2017-03-30T06:37:00.283Z,95
2017-03-30T06:38:00.298Z,99
2017-03-30T06:39:00.041Z,99
2017-03-30T06:40:00.255Z,94
2017-03-30T06:40:59.933Z,95
2017-03-30T06:41:59.909Z,95
2017-03-30T06:42:59.898Z,95
2017-03-30T06:43:59.573Z,95
2017-03-30T06:45:00.196Z,100
2017-03-30T06:46:00.172Z,96
2017-03-30T06:46:59.854Z,100
2017-03-30T06:47:59.829Z,100
2017-03-30T06:48:59.826Z,99
2017-03-30T06:50:00.029Z,95
2017-03-30T06:51:00.114Z,100
2017-03-30T06:51:59.798Z,95
2017-03-30T06:52:59.512Z,96
2017-03-30T06:53:59.769Z,99
2017-03-30T06:54:59.141Z,99
2017-03-30T06:55:59.138Z,97
2017-03-30T06:57:00.056Z,100
2017-03-30T06:58:00.020Z,98
2017-03-30T06:58:59.784Z,94
2017-03-30T07:00:00.021Z,99
2017-03-30T07:00:59.725Z,93
2017-03-30T07:01:59.983Z,100
2017-03-30T07:02:59.997Z,99
2017-03-30T07:04:00.058Z,100
2017-03-30T07:05:00.025Z,100
2017-03-30T07:05:59.777Z,96
2017-03-30T07:06:59.630Z,95
2017-03-30T07:07:59.937Z,100
2017-03-30T07:08:59.940Z,93
2017-03-30T07:09:59.919Z,100
2017-03-30T07:10:59.254Z,96
2017-03-30T07:11:59.871Z,100
2017-03-30T07:12:59.598Z,95
2017-03-30T07:13:59.841Z,100
2017-03-30T07:15:00.077Z,100
2017-03-30T07:15:59.218Z,99
2017-03-30T07:16:59.814Z,94
2017-03-30T07:17:59.470Z,96
2017-03-30T07:18:59.828Z,95
2017-03-30T07:19:59.556Z,93
2017-03-30T07:20:59.440Z,100
2017-03-30T07:21:59.197Z,99
2017-03-30T07:22:59.421Z,100
2017-03-30T07:23:59.744Z,95
2017-03-30T07:24:59.460Z,100
2017-03-30T07:25:59.733Z,100
2017-03-30T07:26:59.710Z,93
2017-03-30T07:27:59.830Z,95
2017-03-30T07:28:59.721Z,100
2017-03-30T07:29:59.346Z,99
2017-03-30T07:30:59.657Z,97
2017-03-30T07:31:59.675Z,94
2017-03-30T07:32:59.632Z,100
2017-03-30T07:33:59.330Z,100
2017-03-30T07:34:59.307Z,100
2017-03-30T07:35:58.659Z,100
2017-03-30T07:36:59.583Z,100
2017-03-30T07:37:58.947Z,100
2017-03-30T07:38:59.570Z,100
2017-03-30T07:39:59.554Z,100
2017-03-30T07:40:59.287Z,95
2017-03-30T07:41:58.909Z,100
2017-03-30T07:42:59.547Z,94
2017-03-30T07:43:59.196Z,100
2017-03-30T07:44:58.893Z,93
2017-03-30T07:45:59.179Z,96
2017-03-30T07:46:59.177Z,99
2017-03-30T07:47:59.204Z,100
2017-03-30T07:48:59.459Z,96
2017-03-30T07:49:59.448Z,100
2017-03-30T07:50:58.818Z,100
2017-03-30T07:51:59.123Z,100
2017-03-30T07:52:59.106Z,98
2017-03-30T07:53:59.096Z,95
2017-03-30T07:54:59.103Z,96
2017-03-30T07:55:59.090Z,100
2017-03-30T07:56:59.088Z,94
2017-03-30T07:57:59.061Z,100
2017-03-30T07:58:59.348Z,98
2017-03-30T07:59:58.791Z,95
2017-03-30T08:00:59.017Z,99
2017-03-30T08:01:59.072Z,99
2017-03-30T08:02:59.312Z,95
2017-03-30T08:03:59.307Z,95
2017-03-30T08:04:59.295Z,100
2017-03-30T08:05:58.988Z,100
2017-03-30T08:06:59.356Z,95
2017-03-30T08:07:59.274Z,95
2017-03-30T08:08:59.245Z,98
2017-03-30T08:09:59.235Z,100
2017-03-30T08:10:59.223Z,100
2017-03-30T08:11:59.006Z,100
2017-03-30T08:12:58.893Z,93
2017-03-30T08:13:59.199Z,100
2017-03-30T08:14:58.877Z,99
2017-03-30T08:15:59.183Z,100
2017-03-30T08:16:59.167Z,100
2017-03-30T08:17:58.853Z,100
2017-03-30T08:18:59.154Z,100
2017-03-30T08:19:59.180Z,100
2017-03-30T08:20:59.136Z,94
2017-03-30T08:21:59.129Z,100
2017-03-30T08:22:58.803Z,95
2017-03-30T08:23:58.785Z,94
2017-03-30T08:24:59.099Z,96
2017-03-30T08:25:59.084Z,95
2017-03-30T08:26:59.082Z,93
2017-03-30T08:27:59.076Z,100
2017-03-30T08:28:59.065Z,92
2017-03-30T08:29:59.101Z,100
2017-03-30T08:30:59.042Z,93
2017-03-30T08:31:58.723Z,94
2017-03-30T08:32:59.019Z,97
2017-03-30T08:33:58.699Z,100
2017-03-30T08:34:59.004Z,94
2017-03-30T08:35:58.689Z,94
2017-03-30T08:36:58.357Z,100
2017-03-30T08:37:58.657Z,100
2017-03-30T08:38:59.003Z,100
2017-03-30T08:39:59.169Z,100
2017-03-30T08:40:58.957Z,100
2017-03-30T08:41:58.950Z,93
2017-03-30T08:42:58.940Z,99
2017-03-30T08:43:58.939Z,93
2017-03-30T08:44:58.625Z,100
2017-03-30T08:45:58.932Z,93
2017-03-30T08:46:58.595Z,100
2017-03-30T08:47:58.596Z,100
2017-03-30T08:48:58.291Z,93
2017-03-30T08:49:58.585Z,97
2017-03-30T08:50:58.625Z,100
2017-03-30T08:51:58.567Z,99
2017-03-30T08:52:58.564Z,93
2017-03-30T08:53:58.561Z,100
2017-03-30T08:54:58.563Z,98
2017-03-30T08:55:58.870Z,99
2017-03-30T08:56:58.858Z,100
2017-03-30T08:57:58.545Z,91
2017-03-30T08:58:58.585Z,92
2017-03-30T08:59:58.532Z,100
2017-03-30T09:00:58.840Z,89
2017-03-30T09:01:58.215Z,99
2017-03-30T09:02:58.828Z,100
2017-03-30T09:03:58.526Z,100
2017-03-30T09:04:58.876Z,89
2017-03-30T09:05:58.819Z,99
2017-03-30T09:06:58.843Z,92
2017-03-30T09:07:58.810Z,97
2017-03-30T09:08:58.537Z,90
2017-03-30T09:09:58.496Z,100
2017-03-30T09:10:58.791Z,94
2017-03-30T09:11:58.166Z,93
2017-03-30T09:12:58.471Z,92
2017-03-30T09:13:58.773Z,92
2017-03-30T09:14:58.459Z,92
2017-03-30T09:15:58.780Z,100
2017-03-30T09:16:58.451Z,100
2017-03-30T09:17:58.761Z,91
2017-03-30T09:18:58.782Z,91
2017-03-30T09:19:58.779Z,92
2017-03-30T09:20:58.745Z,99
2017-03-30T09:21:58.423Z,90
2017-03-30T09:22:58.731Z,92
2017-03-30T09:23:58.406Z,92
2017-03-30T09:24:58.724Z,93
2017-03-30T09:25:58.722Z,92
2017-03-30T09:26:58.763Z,95
2017-03-30T09:27:58.710Z,100
2017-03-30T09:28:58.073Z,100
2017-03-30T09:29:58.383Z,90
2017-03-30T09:30:58.059Z,90
2017-03-30T09:31:58.682Z,93
2017-03-30T09:32:58.676Z,93
2017-03-30T09:33:58.670Z,97
2017-03-30T09:34:58.661Z,99
2017-03-30T09:35:58.653Z,99
2017-03-30T09:36:58.075Z,93
2017-03-30T09:37:58.650Z,100
2017-03-30T09:38:58.640Z,100
2017-03-30T09:39:58.314Z,97
2017-03-30T09:40:58.315Z,91
2017-03-30T09:41:58.626Z,99
2017-03-30T09:42:58.610Z,91
2017-03-30T09:43:58.623Z,100
2017-03-30T09:44:58.652Z,100
2017-03-30T09:45:58.286Z,99
2017-03-30T09:46:58.284Z,99
2017-03-30T09:47:57.669Z,92
2017-03-30T09:48:58.580Z,99
2017-03-30T09:49:58.255Z,92
2017-03-30T09:50:58.249Z,100
2017-03-30T09:51:58.559Z,96
2017-03-30T09:52:58.558Z,92
2017-03-30T09:53:58.549Z,98
2017-03-30T09:54:57.604Z,90
2017-03-30T09:55:58.534Z,93
2017-03-30T09:56:58.528Z,90
2017-03-30T09:57:58.532Z,91
2017-03-30T09:58:58.516Z,90
2017-03-30T09:59:58.519Z,99
2017-03-30T10:00:58.202Z,92
2017-03-30T10:01:58.502Z,90
2017-03-30T10:02:58.186Z,88
2017-03-30T10:03:58.498Z,99
2017-03-30T10:04:58.489Z,90
2017-03-30T10:05:58.494Z,88
2017-03-30T10:06:58.536Z,100
2017-03-30T10:07:58.475Z,97
2017-03-30T10:08:58.167Z,99
2017-03-30T10:09:58.154Z,89
2017-03-30T10:10:58.154Z,99
2017-03-30T10:11:57.840Z,90
2017-03-30T10:12:58.453Z,91
2017-03-30T10:13:57.829Z,91
2017-03-30T10:14:58.143Z,91
2017-03-30T10:15:58.449Z,99
2017-03-30T10:16:58.439Z,99
2017-03-30T10:17:58.446Z,91
2017-03-30T10:18:58.436Z,98
2017-03-30T10:19:58.422Z,90
2017-03-30T10:20:58.317Z,91
2017-03-30T10:21:58.468Z,88
2017-03-30T10:22:58.430Z,98
2017-03-30T10:23:58.407Z,100
2017-03-30T10:24:57.772Z,94
2017-03-30T10:25:58.403Z,93
2017-03-30T10:26:58.395Z,100
2017-03-30T10:27:58.391Z,100
2017-03-30T10:28:58.079Z,90
2017-03-30T10:29:58.389Z,90
2017-03-30T10:30:58.427Z,89
2017-03-30T10:31:58.056Z,98
2017-03-30T10:32:58.372Z,97
2017-03-30T10:33:58.363Z,99
2017-03-30T10:34:58.370Z,98
2017-03-30T10:35:58.357Z,87
2017-03-30T10:36:58.356Z,90
2017-03-30T10:37:58.352Z,88
2017-03-30T10:38:58.348Z,98
2017-03-30T10:39:58.561Z,99
2017-03-30T10:40:58.347Z,94
2017-03-30T10:41:58.343Z,99
2017-03-30T10:42:58.336Z,97
2017-03-30T10:43:57.722Z,97
2017-03-30T10:44:58.329Z,98
2017-03-30T10:45:58.332Z,97
2017-03-30T10:46:57.723Z,93
2017-03-30T10:47:58.320Z,99
2017-03-30T10:48:58.365Z,86
2017-03-30T10:49:58.320Z,94
2017-03-30T10:50:57.997Z,97
2017-03-30T10:51:58.005Z,100
2017-03-30T10:52:57.682Z,96
2017-03-30T10:53:58.306Z,87
2017-03-30T10:54:58.309Z,87
2017-03-30T10:55:58.308Z,100
2017-03-30T10:56:57.997Z,99
2017-03-30T10:57:58.295Z,87
2017-03-30T10:58:57.984Z,100
2017-03-30T10:59:58.288Z,86
2017-03-30T11:00:58.303Z,87
2017-03-30T11:01:57.978Z,98
2017-03-30T11:02:58.287Z,97
2017-03-30T11:03:58.289Z,97
2017-03-30T11:04:58.003Z,83
2017-03-30T11:05:58.324Z,99
2017-03-30T11:06:57.653Z,86
2017-03-30T11:07:57.352Z,99
2017-03-30T11:08:57.972Z,96
2017-03-30T11:09:58.277Z,90
2017-03-30T11:10:58.174Z,86
2017-03-30T11:11:58.290Z,90
2017-03-30T11:12:58.296Z,92
2017-03-30T11:13:57.976Z,88
2017-03-30T11:14:58.287Z,85
2017-03-30T11:16:29.727Z,95
2017-03-30T11:16:57.657Z,85
2017-03-30T11:17:58.279Z,94
2017-03-30T11:18:57.963Z,94
2017-03-30T11:19:57.653Z,91
2017-03-30T11:20:58.273Z,88
2017-03-30T11:21:57.670Z,80
2017-03-30T11:22:58.285Z,83
2017-03-30T11:23:58.327Z,88
2017-03-30T11:24:57.967Z,82
2017-03-30T11:25:57.967Z,87
2017-03-30T11:26:58.281Z,83
2017-03-30T11:27:57.963Z,83
2017-03-30T11:28:58.317Z,87
2017-03-30T11:29:58.283Z,83
2017-03-30T11:30:57.974Z,96
2017-03-30T11:31:58.280Z,82
2017-03-30T11:32:58.283Z,96
2017-03-30T11:33:57.969Z,80
2017-03-30T11:34:58.284Z,94
2017-03-30T11:35:57.986Z,90
2017-03-30T11:36:57.662Z,82
2017-03-30T11:37:57.975Z,93
2017-03-30T11:38:57.659Z,92
2017-03-30T11:39:58.289Z,78
2017-03-30T11:40:57.981Z,91
2017-03-30T11:41:57.992Z,80
2017-03-30T11:42:58.494Z,90
2017-03-30T11:43:58.293Z,91
2017-03-30T11:44:58.300Z,79
2017-03-30T11:45:58.306Z,79
2017-03-30T11:46:58.360Z,91
2017-03-30T11:47:57.988Z,89
2017-03-30T11:48:58.304Z,77
2017-03-30T11:49:58.304Z,75
2017-03-30T11:50:58.304Z,91
2017-03-30T11:51:58.313Z,82
2017-03-30T11:52:57.692Z,87
2017-03-30T11:53:58.309Z,89
2017-03-30T11:54:57.691Z,82
2017-03-30T11:55:58.347Z,77
2017-03-30T11:56:58.320Z,92
2017-03-30T11:57:58.006Z,74
2017-03-30T11:58:57.693Z,77
2017-03-30T11:59:58.368Z,79
2017-03-30T12:00:58.359Z,77
2017-03-30T12:01:58.010Z,78
2017-03-30T12:02:57.740Z,91
2017-03-30T12:03:58.329Z,78
2017-03-30T12:04:57.708Z,86
2017-03-30T12:05:58.025Z,94
2017-03-30T12:06:58.016Z,90
2017-03-30T12:07:58.019Z,80
2017-03-30T12:08:58.344Z,91
2017-03-30T12:09:57.388Z,78
2017-03-30T12:10:58.331Z,92
2017-03-30T12:11:58.337Z,91
2017-03-30T12:12:58.339Z,77
2017-03-30T12:13:58.344Z,91
2017-03-30T12:14:58.028Z,81
2017-03-30T12:15:57.402Z,95
2017-03-30T12:16:58.074Z,80
2017-03-30T12:17:58.035Z,92
2017-03-30T12:18:58.350Z,95
2017-03-30T12:19:58.378Z,80
2017-03-30T12:20:58.344Z,77
2017-03-30T12:21:57.756Z,82
2017-03-30T12:22:58.031Z,88
2017-03-30T12:23:58.365Z,91
2017-03-30T12:24:58.396Z,94
2017-03-30T12:25:58.374Z,81
2017-03-30T12:26:58.045Z,80
2017-03-30T12:27:58.358Z,90
2017-03-30T12:28:58.354Z,92
2017-03-30T12:29:57.733Z,91
2017-03-30T12:30:58.364Z,91
2017-03-30T12:31:58.367Z,85
2017-03-30T12:32:57.734Z,85
2017-03-30T12:33:57.742Z,78
2017-03-30T12:34:58.363Z,78
2017-03-30T12:35:58.378Z,76
2017-03-30T12:36:58.373Z,83
2017-03-30T12:37:58.588Z,77
2017-03-30T12:38:58.372Z,89
2017-03-30T12:39:58.575Z,76
2017-03-30T12:40:58.388Z,72
2017-03-30T12:41:57.446Z,86
2017-03-30T12:42:58.427Z,75
2017-03-30T12:43:58.384Z,75
2017-03-30T12:44:57.754Z,81
2017-03-30T12:45:58.385Z,76
2017-03-30T12:46:58.090Z,76
2017-03-30T12:47:58.386Z,77
2017-03-30T12:48:58.075Z,86
2017-03-30T12:49:58.402Z,75
2017-03-30T12:50:58.087Z,72
2017-03-30T12:51:58.442Z,87
2017-03-30T12:52:58.395Z,72
2017-03-30T12:53:57.456Z,73
2017-03-30T12:54:58.398Z,86
2017-03-30T12:55:57.773Z,88
2017-03-30T12:56:58.095Z,88
2017-03-30T12:57:58.417Z,71
2017-03-30T12:58:57.467Z,85
2017-03-30T12:59:58.404Z,71
2017-03-30T13:00:58.096Z,74
2017-03-30T13:01:58.412Z,85
2017-03-30T13:02:58.093Z,78
2017-03-30T13:03:58.406Z,88
2017-03-30T13:04:58.095Z,71
2017-03-30T13:05:58.097Z,74
2017-03-30T13:06:58.408Z,75
2017-03-30T13:07:58.404Z,85
2017-03-30T13:08:58.408Z,88
2017-03-30T13:09:58.405Z,76
2017-03-30T13:10:58.086Z,88
2017-03-30T13:11:58.409Z,83
2017-03-30T13:12:58.088Z,80
2017-03-30T13:13:58.394Z,92
2017-03-30T13:14:58.453Z,81
2017-03-30T13:15:58.387Z,83
2017-03-30T13:16:58.387Z,81
2017-03-30T13:17:58.387Z,92
2017-03-30T13:18:57.758Z,80
2017-03-30T13:19:58.386Z,82
2017-03-30T13:20:58.384Z,92
2017-03-30T13:21:58.415Z,80
2017-03-30T13:22:58.385Z,85
2017-03-30T13:23:58.424Z,88
2017-03-30T13:24:58.067Z,82
2017-03-30T13:25:58.397Z,77
2017-03-30T13:26:58.083Z,78
2017-03-30T13:27:58.375Z,81
2017-03-30T13:28:58.075Z,90
2017-03-30T13:29:58.372Z,80
2017-03-30T13:30:58.072Z,77
2017-03-30T13:31:58.070Z,80
2017-03-30T13:32:58.373Z,77
2017-03-30T13:33:58.378Z,84
2017-03-30T13:34:57.753Z,73
2017-03-30T13:35:58.056Z,72
2017-03-30T13:36:58.059Z,76
2017-03-30T13:37:58.064Z,87
2017-03-30T13:38:58.155Z,89
2017-03-30T13:39:58.379Z,89
2017-03-30T13:40:58.374Z,80
2017-03-30T13:41:58.372Z,88
2017-03-30T13:42:58.058Z,78
2017-03-30T13:43:58.922Z,77
2017-03-30T13:44:58.095Z,86
2017-03-30T13:45:57.773Z,78
2017-03-30T13:46:58.064Z,83
2017-03-30T13:47:58.065Z,76
2017-03-30T13:48:57.745Z,85
2017-03-30T13:49:58.368Z,87
2017-03-30T13:50:58.376Z,84
2017-03-30T13:51:58.056Z,76
2017-03-30T13:52:58.365Z,88
2017-03-30T13:53:58.362Z,76
2017-03-30T13:54:57.793Z,72
2017-03-30T13:55:58.409Z,76
2017-03-30T13:56:58.050Z,72
2017-03-30T13:57:58.388Z,73
2017-03-30T13:58:58.052Z,82
2017-03-30T13:59:58.402Z,73
2017-03-30T14:00:58.356Z,71
2017-03-30T14:01:58.043Z,74
2017-03-30T14:02:58.039Z,83
2017-03-30T14:03:57.763Z,74
2017-03-30T14:04:57.723Z,80
2017-03-30T14:05:58.034Z,85
2017-03-30T14:06:58.032Z,73
2017-03-30T14:07:58.351Z,83
2017-03-30T14:08:58.334Z,76
2017-03-30T14:09:57.705Z,76